Time;durP1;ratioP1;P1;durP2;ratioP2;P2;SDS_P1;SDS_P2;PMS_P1;PMS_P2;Temp;Humidity;BMP_temperature;BMP_pressure;BME280_temperature;BME280_humidity;BME280_pressure;Samples;Min_cycle;Max_cycle;Signal;HPM_P1;HPM_P2
2022/10/24 00:02:07;;;;;;;7.40;2.70;;;;;;;13.52;100.00;100218.59;5269646;28;20027;-71
2022/10/24 00:04:39;;;;;;;9.85;2.60;;;;;;;13.53;100.00;100215.75;5272252;28;20036;-71
2022/10/24 00:07:11;;;;;;;10.57;2.58;;;;;;;13.51;100.00;100195.47;5271260;28;20028;-70
2022/10/24 00:09:42;;;;;;;6.63;2.45;;;;;;;13.51;100.00;100212.38;5274191;28;20027;-71
2022/10/24 00:12:14;;;;;;;7.70;2.55;;;;;;;13.50;100.00;100199.13;5274554;28;20039;-70
2022/10/24 00:14:45;;;;;;;9.75;2.33;;;;;;;13.49;100.00;100210.88;5277417;28;20103;-70
2022/10/24 00:17:16;;;;;;;6.07;2.53;;;;;;;13.43;100.00;100203.44;5276075;28;20024;-71
2022/10/24 00:19:48;;;;;;;7.57;2.13;;;;;;;13.42;100.00;100205.25;5272006;28;20024;-70
2022/10/24 00:22:20;;;;;;;8.23;2.40;;;;;;;13.41;100.00;100205.44;5271708;28;20472;-70
2022/10/24 00:24:51;;;;;;;8.32;2.40;;;;;;;13.39;100.00;100202.06;5270333;28;20032;-71
2022/10/24 00:27:22;;;;;;;7.22;2.22;;;;;;;13.39;100.00;100204.75;5270436;28;20032;-70
2022/10/24 00:29:54;;;;;;;11.40;2.75;;;;;;;13.32;100.00;100204.47;5275599;28;20461;-70
2022/10/24 00:32:25;;;;;;;10.13;2.67;;;;;;;13.33;100.00;100203.50;5276933;28;20059;-70
2022/10/24 00:34:56;;;;;;;7.32;2.88;;;;;;;13.39;100.00;100200.22;5269082;28;20041;-70
2022/10/24 00:37:28;;;;;;;6.55;2.35;;;;;;;13.38;100.00;100193.16;5264681;28;20099;-70
2022/10/24 00:39:59;;;;;;;5.40;2.20;;;;;;;13.33;100.00;100201.66;5269626;28;20032;-70
2022/10/24 00:42:30;;;;;;;6.85;2.25;;;;;;;13.30;100.00;100196.59;5276320;28;20498;-70
2022/10/24 00:45:36;;;;;;;5.18;2.42;;;;;;;13.32;100.00;100196.44;5275576;28;20036;-70
2022/10/24 00:48:41;;;;;;;5.00;2.00;;;;;;;13.32;100.00;100183.03;5275842;28;20024;-70
2022/10/24 00:51:20;;;;;;;7.22;2.92;;;;;;;13.36;100.00;100191.63;5275772;28;20394;-70
2022/10/24 00:53:56;;;;;;;7.53;2.58;;;;;;;13.22;100.00;100182.25;5268626;28;20123;-70
2022/10/24 00:56:33;;;;;;;9.05;2.63;;;;;;;13.24;100.00;100185.63;5272346;28;20067;-70
2022/10/24 00:59:07;;;;;;;8.35;2.28;;;;;;;13.27;100.00;100182.63;5249658;28;20033;-70
2022/10/24 01:01:41;;;;;;;6.80;2.10;;;;;;;13.17;100.00;100177.31;5276328;28;20450;-70
2022/10/24 01:04:12;;;;;;;7.82;2.42;;;;;;;13.20;100.00;100184.25;5275225;28;20397;-70
2022/10/24 01:07:01;;;;;;;7.70;2.17;;;;;;;13.21;100.00;100186.78;5268231;28;20028;-70
2022/10/24 01:09:45;;;;;;;9.05;2.63;;;;;;;13.13;100.00;100181.31;5271724;28;20088;-70
2022/10/24 01:12:19;;;;;;;7.57;2.78;;;;;;;13.12;100.00;100179.63;5271548;28;20024;-71
2022/10/24 01:15:12;;;;;;;10.63;3.13;;;;;;;13.16;100.00;100178.34;5277154;28;20036;-71
2022/10/24 01:17:46;;;;;;;6.35;3.08;;;;;;;13.12;100.00;100177.78;5270977;28;20027;-71
2022/10/24 01:20:48;;;;;;;7.70;2.35;;;;;;;13.12;100.00;100176.97;5262232;28;20033;-71
2022/10/24 01:23:47;;;;;;;8.35;3.33;;;;;;;13.11;100.00;100176.09;5264724;28;20108;-71
2022/10/24 01:26:21;;;;;;;8.73;2.92;;;;;;;13.08;100.00;100167.53;5274263;28;20032;-70
2022/10/24 01:29:10;;;;;;;4.93;2.50;;;;;;;13.12;100.00;100174.28;5270222;28;20257;-70
2022/10/24 01:31:52;;;;;;;6.22;2.53;;;;;;;13.08;100.00;100168.38;5270939;28;20052;-70
2022/10/24 01:34:31;;;;;;;6.47;2.67;;;;;;;13.14;100.00;100173.13;5266058;28;20021;-71
2022/10/24 01:37:20;;;;;;;7.88;2.75;;;;;;;13.10;100.00;100170.91;5261541;28;20389;-70
2022/10/24 01:39:56;;;;;;;8.98;2.58;;;;;;;13.13;100.00;100176.81;5273314;28;20055;-71
2022/10/24 01:42:30;;;;;;;5.43;2.40;;;;;;;13.06;100.00;100175.72;5266581;28;20415;-70
2022/10/24 01:45:04;;;;;;;8.98;2.50;;;;;;;13.09;100.00;100170.03;5269966;28;20032;-71
2022/10/24 01:47:45;;;;;;;9.18;2.28;;;;;;;13.10;100.00;100160.19;5274932;28;20063;-70
2022/10/24 01:50:19;;;;;;;6.97;2.40;;;;;;;13.20;100.00;100160.13;5274700;28;20040;-70
2022/10/24 01:52:51;;;;;;;;;;;;;;;13.09;100.00;100164.69;5265478;28;20366;-70
2022/10/24 01:55:23;;;;;;;7.78;2.03;;;;;;;13.05;100.00;100149.09;5275169;28;19908;-71
2022/10/24 01:57:54;;;;;;;6.30;2.03;;;;;;;13.09;100.00;100153.97;5272864;28;20029;-70
2022/10/24 02:00:25;;;;;;;5.65;2.13;;;;;;;13.06;100.00;100154.28;5268714;28;20025;-71
2022/10/24 02:03:07;;;;;;;11.02;3.05;;;;;;;13.06;100.00;100148.06;5269033;28;20036;-70
2022/10/24 02:05:44;;;;;;;6.30;1.95;;;;;;;13.13;100.00;100151.84;5268665;28;20032;-70
2022/10/24 02:08:24;;;;;;;6.90;2.10;;;;;;;13.07;100.00;100150.59;5271106;28;20039;-71
2022/10/24 02:11:00;;;;;;;7.05;1.60;;;;;;;13.11;100.00;100156.50;5271497;28;20040;-71
2022/10/24 02:13:48;;;;;;;9.10;2.22;;;;;;;12.99;100.00;100155.88;5272771;28;20081;-70
2022/10/24 02:16:20;;;;;;;6.15;2.10;;;;;;;12.95;100.00;100146.47;5271525;28;20481;-71
2022/10/24 02:18:55;;;;;;;5.43;1.60;;;;;;;13.14;100.00;100150.84;5276604;28;20028;-71
2022/10/24 02:21:41;;;;;;;5.60;1.60;;;;;;;12.98;100.00;100156.84;5269997;28;20032;-71
2022/10/24 02:24:20;;;;;;;5.15;1.80;;;;;;;12.98;100.00;100145.31;5277741;28;20036;-71
2022/10/24 02:27:21;;;;;;;7.32;1.60;;;;;;;12.92;100.00;100149.44;5272117;28;20037;-70
2022/10/24 02:30:13;;;;;;;9.70;1.80;;;;;;;12.99;100.00;100149.69;5273793;28;20052;-71
2022/10/24 02:32:48;;;;;;;7.90;1.83;;;;;;;12.99;100.00;100145.16;5276930;28;20024;-71
2022/10/24 02:35:25;;;;;;;4.88;1.63;;;;;;;12.90;100.00;100143.38;5276888;28;20483;-71
2022/10/24 02:38:18;;;;;;;5.93;1.60;;;;;;;12.93;100.00;100148.44;5265536;28;20047;-71
2022/10/24 02:40:51;;;;;;;6.03;1.50;;;;;;;12.93;100.00;100149.28;5279710;28;20036;-71
2022/10/24 02:43:24;;;;;;;5.57;1.63;;;;;;;12.93;100.00;100148.44;5267594;28;20025;-70
2022/10/24 02:45:57;;;;;;;5.80;1.80;;;;;;;12.88;100.00;100161.44;5275727;28;20037;-71
2022/10/24 02:48:34;;;;;;;7.78;1.95;;;;;;;13.00;100.00;100143.31;5277882;28;20028;-70
2022/10/24 02:51:06;;;;;;;4.30;1.70;;;;;;;13.03;100.00;100151.91;5277368;28;20106;-71
2022/10/24 02:53:38;;;;;;;6.55;1.40;;;;;;;12.94;100.00;100150.13;5278839;28;20526;-71
2022/10/24 02:56:09;;;;;;;7.07;1.67;;;;;;;12.92;100.00;100154.78;5274493;28;20048;-71
2022/10/24 02:58:41;;;;;;;6.65;1.70;;;;;;;12.96;100.00;100148.13;5272848;28;20047;-71
2022/10/24 03:01:12;;;;;;;5.82;1.60;;;;;;;12.95;100.00;100151.81;5276289;28;20028;-70
2022/10/24 03:03:43;;;;;;;4.55;1.60;;;;;;;13.03;100.00;100157.25;5274201;28;20294;-71
2022/10/24 03:06:15;;;;;;;6.57;1.65;;;;;;;12.93;100.00;100153.81;5272835;28;20036;-70
2022/10/24 03:08:46;;;;;;;5.70;1.40;;;;;;;12.94;100.00;100156.34;5264973;28;20039;-70
2022/10/24 03:11:17;;;;;;;5.55;1.20;;;;;;;13.08;100.00;100159.50;5273494;28;20024;-70
2022/10/24 03:13:50;;;;;;;4.97;1.60;;;;;;;13.06;100.00;100164.13;5278200;28;20402;-71
2022/10/24 03:16:21;;;;;;;5.90;1.50;;;;;;;12.99;100.00;100155.03;5254559;28;20643;-71
2022/10/24 03:18:53;;;;;;;7.72;1.70;;;;;;;12.97;100.00;100157.88;5271444;28;20142;-70
2022/10/24 03:21:24;;;;;;;3.97;1.40;;;;;;;12.98;100.00;100156.84;5271206;28;20436;-70
2022/10/24 03:23:55;;;;;;;6.13;1.50;;;;;;;12.98;100.00;100162.22;5271969;28;20028;-70
2022/10/24 03:26:27;;;;;;;4.82;1.55;;;;;;;12.94;100.00;100153.66;5278699;28;20036;-70
2022/10/24 03:28:58;;;;;;;3.75;1.25;;;;;;;12.87;100.00;100147.22;5273302;28;20398;-70
2022/10/24 03:31:30;;;;;;;7.53;1.58;;;;;;;12.91;100.00;100155.78;5261615;28;20051;-70
2022/10/24 03:34:01;;;;;;;5.03;1.48;;;;;;;12.87;100.00;100155.25;5274286;28;20033;-70
2022/10/24 03:36:33;;;;;;;5.82;1.30;;;;;;;12.83;100.00;100147.66;5273811;28;20066;-70
2022/10/24 03:39:04;;;;;;;7.07;2.05;;;;;;;12.93;100.00;100143.09;5268299;28;20137;-70
2022/10/24 03:41:35;;;;;;;5.70;1.65;;;;;;;12.83;100.00;100137.81;5273878;28;20378;-70
2022/10/24 03:44:07;;;;;;;7.88;1.38;;;;;;;12.91;100.00;100139.72;5273607;28;20089;-70
2022/10/24 03:46:38;;;;;;;6.43;1.55;;;;;;;12.92;100.00;100136.03;5276525;28;20028;-71
2022/10/24 03:49:10;;;;;;;5.97;1.98;;;;;;;12.96;100.00;100132.06;5274742;28;20391;-71
2022/10/24 03:51:41;;;;;;;7.80;1.80;;;;;;;12.97;100.00;100128.41;5275485;28;20020;-70
2022/10/24 03:54:14;;;;;;;7.78;1.88;;;;;;;12.91;100.00;100137.06;5276814;28;20035;-70
2022/10/24 03:56:46;;;;;;;5.07;1.50;;;;;;;12.91;100.00;100129.03;5270223;28;20425;-71
2022/10/24 03:59:18;;;;;;;7.13;1.60;;;;;;;12.98;100.00;100138.13;5277459;28;20024;-70
2022/10/24 04:01:49;;;;;;;10.38;1.75;;;;;;;13.05;100.00;100135.69;5276877;28;20027;-70
2022/10/24 04:04:21;;;;;;;5.45;1.63;;;;;;;13.14;100.00;100135.63;5273585;28;20032;-70
2022/10/24 04:06:52;;;;;;;7.78;2.28;;;;;;;13.10;100.00;100139.59;5269273;28;20035;-71
2022/10/24 04:09:23;;;;;;;7.25;1.60;;;;;;;13.06;100.00;100148.06;5277756;28;20072;-70
2022/10/24 04:11:55;;;;;;;6.28;1.50;;;;;;;13.10;100.00;100158.34;5277125;28;20032;-70
2022/10/24 04:14:26;;;;;;;10.45;1.83;;;;;;;13.04;100.00;100145.56;5274962;28;20024;-70
2022/10/24 04:16:57;;;;;;;6.60;1.67;;;;;;;13.12;100.00;100136.78;5264388;28;20025;-71
2022/10/24 04:19:28;;;;;;;7.50;1.42;;;;;;;13.16;100.00;100145.34;5277956;28;20028;-71
2022/10/24 04:22:00;;;;;;;8.02;1.40;;;;;;;13.05;100.00;100147.22;5272273;28;20478;-70
2022/10/24 04:24:31;;;;;;;7.35;2.00;;;;;;;13.10;100.00;100136.91;5277403;28;20028;-70
2022/10/24 04:27:02;;;;;;;7.22;1.63;;;;;;;13.17;100.00;100134.47;5277501;28;20138;-70
2022/10/24 04:29:34;;;;;;;6.55;1.67;;;;;;;13.10;100.00;100133.41;5264739;28;20032;-70
2022/10/24 04:32:05;;;;;;;8.43;1.50;;;;;;;13.19;100.00;100129.81;5276752;28;20029;-70
2022/10/24 04:34:37;;;;;;;7.80;1.40;;;;;;;13.14;100.00;100134.78;5277415;28;20111;-70
2022/10/24 04:37:08;;;;;;;6.05;1.30;;;;;;;13.32;100.00;100132.97;5252414;28;20128;-70
2022/10/24 04:39:39;;;;;;;6.38;1.77;;;;;;;13.28;100.00;100128.88;5277879;28;20039;-69
2022/10/24 04:42:11;;;;;;;6.80;1.60;;;;;;;13.28;100.00;100136.09;5274086;28;20027;-70
2022/10/24 04:44:42;;;;;;;6.85;1.45;;;;;;;13.20;100.00;100136.84;5269180;28;20040;-70
2022/10/24 04:47:13;;;;;;;7.63;1.40;;;;;;;13.27;100.00;100140.63;5274494;28;20024;-70
2022/10/24 04:49:44;;;;;;;6.60;1.30;;;;;;;13.17;100.00;100131.78;5274897;28;20347;-70
2022/10/24 04:52:16;;;;;;;9.32;1.60;;;;;;;13.25;100.00;100141.75;5276454;28;20036;-70
2022/10/24 04:54:47;;;;;;;8.27;1.52;;;;;;;13.31;100.00;100141.19;5277142;28;20024;-70
2022/10/24 04:57:18;;;;;;;7.30;1.42;;;;;;;13.23;100.00;100141.91;5268676;28;20021;-70
2022/10/24 04:59:49;;;;;;;5.50;1.77;;;;;;;13.28;100.00;100141.44;5277658;28;20039;-70
2022/10/24 05:02:21;;;;;;;7.55;1.73;;;;;;;13.31;100.00;100142.03;5269741;28;20466;-70
2022/10/24 05:04:52;;;;;;;5.65;1.40;;;;;;;13.43;100.00;100139.13;5276882;28;20497;-71
2022/10/24 05:07:23;;;;;;;5.45;1.20;;;;;;;13.40;100.00;100134.06;5271480;28;20863;-70
2022/10/24 05:09:54;;;;;;;5.70;1.70;;;;;;;13.42;100.00;100132.06;5270784;28;20060;-70
2022/10/24 05:12:26;;;;;;;6.30;1.40;;;;;;;13.35;100.00;100142.56;5278350;28;20035;-70
2022/10/24 05:14:57;;;;;;;6.80;1.33;;;;;;;13.36;100.00;100141.56;5265110;28;20060;-70
2022/10/24 05:17:28;;;;;;;14.68;2.55;;;;;;;13.36;100.00;100144.22;5274956;28;20050;-70
2022/10/24 05:20:00;;;;;;;5.80;1.40;;;;;;;13.45;100.00;100154.03;5269905;28;20040;-70
2022/10/24 05:22:31;;;;;;;7.72;1.80;;;;;;;13.45;100.00;100155.88;5276475;28;20028;-70
2022/10/24 05:25:03;;;;;;;5.97;1.80;;;;;;;13.46;100.00;100149.50;5270936;28;20116;-71
2022/10/24 05:27:34;;;;;;;6.28;1.55;;;;;;;13.50;100.00;100149.06;5273150;28;20101;-70
2022/10/24 05:30:06;;;;;;;7.47;1.92;;;;;;;13.56;100.00;100165.50;5276704;28;20074;-70
2022/10/24 05:32:38;;;;;;;7.03;1.65;;;;;;;13.58;100.00;100166.22;5275217;28;20083;-70
2022/10/24 05:35:09;;;;;;;6.50;1.63;;;;;;;13.62;100.00;100164.94;5268925;28;20032;-70
2022/10/24 05:37:42;;;;;;;8.23;1.80;;;;;;;13.60;100.00;100165.06;5271773;28;20039;-70
2022/10/24 05:40:14;;;;;;;7.88;1.73;;;;;;;13.64;100.00;100173.66;5274626;28;20021;-70
2022/10/24 05:42:45;;;;;;;6.53;1.48;;;;;;;13.72;100.00;100161.16;5272933;28;20050;-70
2022/10/24 05:45:17;;;;;;;8.20;1.27;;;;;;;13.70;100.00;100168.50;5275438;28;20028;-70
2022/10/24 05:47:48;;;;;;;8.02;1.63;;;;;;;13.73;100.00;100170.88;5273512;28;20024;-70
2022/10/24 05:50:20;;;;;;;10.00;1.80;;;;;;;13.76;100.00;100159.00;5268589;28;20044;-70
2022/10/24 05:52:52;;;;;;;6.43;1.60;;;;;;;13.80;100.00;100175.63;5263071;28;20041;-70
2022/10/24 05:55:23;;;;;;;8.07;1.50;;;;;;;13.81;100.00;100170.13;5272971;28;20150;-70
2022/10/24 05:57:55;;;;;;;10.45;2.10;;;;;;;13.77;100.00;100171.44;5269017;28;20032;-70
2022/10/24 06:00:26;;;;;;;9.02;1.55;;;;;;;13.82;100.00;100166.41;5274789;28;20027;-70
2022/10/24 06:02:57;;;;;;;6.93;1.95;;;;;;;13.80;100.00;100168.41;5275889;28;20466;-70
2022/10/24 06:05:29;;;;;;;7.38;1.85;;;;;;;13.78;100.00;100169.56;5256881;28;20048;-70
2022/10/24 06:08:00;;;;;;;8.68;1.58;;;;;;;13.73;100.00;100180.78;5275450;28;20028;-70
2022/10/24 06:10:32;;;;;;;6.60;1.50;;;;;;;13.75;100.00;100178.78;5272312;28;20157;-70
2022/10/24 06:13:03;;;;;;;9.32;2.03;;;;;;;13.67;100.00;100170.66;5271584;28;20070;-70
2022/10/24 06:15:34;;;;;;;10.48;1.92;;;;;;;13.75;100.00;100186.81;5273822;28;20063;-70
2022/10/24 06:18:06;;;;;;;8.95;1.48;;;;;;;13.73;100.00;100181.63;5274071;28;20081;-70
2022/10/24 06:20:37;;;;;;;12.10;1.80;;;;;;;13.70;100.00;100194.47;5275989;28;20086;-70
2022/10/24 06:23:08;;;;;;;8.18;1.83;;;;;;;13.67;100.00;100189.41;5273791;28;20631;-70
2022/10/24 06:25:40;;;;;;;7.18;1.42;;;;;;;13.63;100.00;100190.72;5269174;28;20051;-70
2022/10/24 06:28:13;;;;;;;10.27;1.85;;;;;;;13.76;100.00;100188.50;5269279;28;20142;-70
2022/10/24 06:30:47;;;;;;;7.75;1.67;;;;;;;13.67;100.00;100179.56;5272560;28;20037;-70
2022/10/24 06:33:19;;;;;;;7.38;1.42;;;;;;;13.72;100.00;100182.59;5274173;28;20111;-70
2022/10/24 06:35:50;;;;;;;7.93;1.85;;;;;;;13.65;100.00;100189.59;5272801;28;20020;-70
2022/10/24 06:38:21;;;;;;;5.90;1.30;;;;;;;13.60;100.00;100196.41;5273585;28;20040;-70
2022/10/24 06:40:53;;;;;;;6.88;1.70;;;;;;;13.65;100.00;100194.94;5277020;28;20027;-70
2022/10/24 06:43:24;;;;;;;13.45;2.05;;;;;;;13.60;100.00;100205.28;5271866;28;20039;-70
2022/10/24 06:45:56;;;;;;;11.10;1.83;;;;;;;13.65;100.00;100210.16;5270857;28;20055;-70
2022/10/24 06:48:27;;;;;;;10.32;2.15;;;;;;;13.60;100.00;100210.63;5269657;28;20020;-70
2022/10/24 06:50:58;;;;;;;7.22;1.90;;;;;;;13.61;100.00;100216.84;5274039;28;20406;-70
2022/10/24 06:53:31;;;;;;;9.60;1.85;;;;;;;13.63;100.00;100220.19;5275724;28;20478;-70
2022/10/24 06:56:04;;;;;;;11.05;1.73;;;;;;;13.61;100.00;100222.19;5274735;28;20043;-70
2022/10/24 06:58:36;;;;;;;9.20;1.90;;;;;;;13.64;100.00;100230.78;5268051;28;20029;-71
2022/10/24 07:01:09;;;;;;;10.25;2.03;;;;;;;13.64;100.00;100238.81;5269067;28;20058;-70
2022/10/24 07:03:41;;;;;;;7.95;1.60;;;;;;;13.78;100.00;100236.59;5271557;28;20165;-70
2022/10/24 07:06:20;;;;;;;9.80;2.15;;;;;;;13.76;100.00;100235.91;5275924;28;20111;-70
2022/10/24 07:08:53;;;;;;;9.73;1.92;;;;;;;13.76;100.00;100231.38;5267900;28;20048;-70
2022/10/24 07:11:25;;;;;;;11.30;1.65;;;;;;;13.76;100.00;100234.06;5271424;28;20056;-70
2022/10/24 07:13:56;;;;;;;10.85;2.05;;;;;;;13.69;100.00;100243.72;5266519;28;20137;-70
2022/10/24 07:16:28;;;;;;;12.18;1.98;;;;;;;13.65;100.00;100226.25;5271408;28;20036;-70
2022/10/24 07:18:59;;;;;;;10.88;2.15;;;;;;;13.60;100.00;100234.75;5271307;28;20124;-69
2022/10/24 07:21:32;;;;;;;12.93;2.47;;;;;;;13.58;100.00;100246.66;5278631;28;20028;-70
2022/10/24 07:24:04;;;;;;;8.98;1.85;;;;;;;13.52;100.00;100254.28;5274560;28;20380;-70
2022/10/24 07:26:35;;;;;;;9.43;2.15;;;;;;;13.57;100.00;100266.38;5251775;28;20029;-70
2022/10/24 07:29:06;;;;;;;12.65;1.98;;;;;;;13.66;100.00;100262.81;5274204;28;20048;-70
2022/10/24 07:31:37;;;;;;;11.48;1.98;;;;;;;13.76;100.00;100273.47;5274080;28;20036;-70
2022/10/24 07:34:09;;;;;;;11.52;1.88;;;;;;;13.70;100.00;100277.59;5266450;28;20395;-70
2022/10/24 07:36:40;;;;;;;12.70;2.63;;;;;;;13.78;100.00;100280.34;5275022;28;20061;-71
2022/10/24 07:39:12;;;;;;;10.05;2.10;;;;;;;13.77;100.00;100284.03;5271866;28;20498;-70
2022/10/24 07:41:43;;;;;;;9.68;1.70;;;;;;;13.80;100.00;100285.56;5277326;28;20012;-70
2022/10/24 07:44:14;;;;;;;10.15;1.88;;;;;;;13.90;100.00;100272.91;5273157;28;20130;-70
2022/10/24 07:46:46;;;;;;;10.60;2.13;;;;;;;13.96;100.00;100291.09;5278026;28;20529;-70
2022/10/24 07:49:17;;;;;;;8.40;1.70;;;;;;;13.99;100.00;100296.13;5276484;28;20080;-70
2022/10/24 07:51:48;;;;;;;11.98;1.73;;;;;;;14.07;100.00;100308.78;5275530;28;20119;-70
2022/10/24 07:54:19;;;;;;;13.10;2.80;;;;;;;14.11;100.00;100320.88;5277259;28;20142;-69
2022/10/24 07:56:51;;;;;;;9.18;1.52;;;;;;;14.19;100.00;100320.13;5278498;28;20036;-70
2022/10/24 07:59:22;;;;;;;7.95;1.42;;;;;;;14.24;100.00;100321.34;5276896;28;20044;-70
2022/10/24 08:01:53;;;;;;;11.65;1.52;;;;;;;14.24;100.00;100325.88;5274214;28;20032;-70
2022/10/24 08:04:25;;;;;;;8.55;1.80;;;;;;;14.24;100.00;100331.25;5274666;28;20341;-70
2022/10/24 08:06:56;;;;;;;9.40;1.80;;;;;;;14.25;100.00;100338.31;5274494;28;20036;-70
2022/10/24 08:09:27;;;;;;;9.00;1.95;;;;;;;14.26;100.00;100338.13;5275780;28;20029;-70
2022/10/24 08:11:59;;;;;;;7.63;1.50;;;;;;;14.42;100.00;100341.97;5276855;28;20382;-70
2022/10/24 08:14:30;;;;;;;6.25;1.33;;;;;;;14.43;100.00;100341.81;5277105;28;20033;-70
2022/10/24 08:17:01;;;;;;;10.60;1.75;;;;;;;14.46;100.00;100346.03;5266387;28;20021;-70
2022/10/24 08:19:33;;;;;;;8.82;1.73;;;;;;;14.44;100.00;100359.63;5274818;28;20093;-70
2022/10/24 08:22:04;;;;;;;7.93;1.77;;;;;;;14.52;100.00;100345.41;5274583;28;20032;-70
2022/10/24 08:24:36;;;;;;;9.13;1.95;;;;;;;14.62;100.00;100356.09;5269705;28;20342;-70
2022/10/24 08:27:07;;;;;;;10.23;1.42;;;;;;;14.64;100.00;100360.31;5274690;28;20052;-70
2022/10/24 08:29:38;;;;;;;10.90;1.73;;;;;;;14.72;100.00;100356.00;5273448;28;20025;-69
2022/10/24 08:32:10;;;;;;;9.93;1.98;;;;;;;14.74;100.00;100372.78;5275259;28;20490;-70
2022/10/24 08:34:41;;;;;;;8.75;1.88;;;;;;;14.79;100.00;100373.19;5274556;28;20103;-70
2022/10/24 08:37:12;;;;;;;9.25;2.00;;;;;;;14.75;100.00;100355.69;5276553;28;20064;-70
2022/10/24 08:39:43;;;;;;;8.43;1.65;;;;;;;14.70;100.00;100369.56;5274764;28;20036;-70
2022/10/24 08:42:17;;;;;;;9.77;1.70;;;;;;;14.61;100.00;100370.50;5268494;28;20028;-70
2022/10/24 08:44:48;;;;;;;9.20;1.73;;;;;;;14.61;100.00;100373.19;5276011;28;20078;-70
2022/10/24 08:47:41;;;;;;;7.25;1.80;;;;;;;14.54;100.00;100367.56;5276321;28;20473;-70
2022/10/24 08:50:27;;;;;;;10.13;2.35;;;;;;;14.56;100.00;100376.31;5270142;28;20422;-70
2022/10/24 08:53:15;;;;;;;12.57;2.10;;;;;;;14.59;100.00;100381.38;5271395;28;20032;-69
2022/10/24 08:55:54;;;;;;;8.57;1.83;;;;;;;14.58;100.00;100370.84;5274525;28;20071;-70
2022/10/24 08:58:34;;;;;;;6.28;1.30;;;;;;;14.58;100.00;100368.97;5269205;28;20032;-70
2022/10/24 09:01:13;;;;;;;10.20;2.22;;;;;;;14.62;100.00;100375.72;5264440;28;20027;-69
2022/10/24 09:03:47;;;;;;;7.97;1.50;;;;;;;14.65;100.00;100382.63;5271184;28;20127;-70
2022/10/24 09:06:22;;;;;;;7.68;1.63;;;;;;;14.75;100.00;100382.56;5273609;28;20048;-69
2022/10/24 09:08:59;;;;;;;6.50;1.50;;;;;;;14.78;100.00;100384.91;5269162;28;20351;-70
2022/10/24 09:11:53;;;;;;;6.90;1.38;;;;;;;14.80;100.00;100388.28;5272078;28;20031;-70
2022/10/24 09:14:28;;;;;;;8.50;1.60;;;;;;;14.81;100.00;100384.59;5271049;28;20067;-69
2022/10/24 09:17:36;;;;;;;12.18;2.13;;;;;;;14.86;100.00;100393.88;5273777;28;20413;-69
2022/10/24 09:20:32;;;;;;;11.07;2.05;;;;;;;14.85;100.00;100400.25;5143020;29;20039;-70
2022/10/24 09:23:05;;;;;;;8.80;1.63;;;;;;;14.91;100.00;100396.09;5271462;28;20034;-70
2022/10/24 09:25:40;;;;;;;9.65;1.73;;;;;;;14.98;100.00;100407.91;5263264;28;20104;-71
2022/10/24 09:28:11;;;;;;;6.57;2.05;;;;;;;15.02;100.00;100395.84;5267379;28;20589;-70
2022/10/24 09:30:43;;;;;;;12.52;2.22;;;;;;;15.04;100.00;100411.81;5275444;28;20104;-70
2022/10/24 09:33:33;;;;;;;8.60;1.67;;;;;;;15.10;100.00;100409.31;5275953;28;20035;-70
2022/10/24 09:36:10;;;;;;;10.70;1.92;;;;;;;15.10;100.00;100405.78;5263396;28;20040;-70
2022/10/24 09:38:43;;;;;;;6.82;1.50;;;;;;;15.13;100.00;100415.38;5275815;28;20513;-70
2022/10/24 09:41:25;;;;;;;10.98;2.28;;;;;;;15.16;100.00;100413.22;5263229;28;20016;-70
2022/10/24 09:43:58;;;;;;;13.75;2.42;;;;;;;15.20;100.00;100419.13;5271233;28;20033;-69
2022/10/24 09:46:43;;;;;;;10.98;1.92;;;;;;;15.17;100.00;100419.44;5274436;28;20435;-70
2022/10/24 09:49:21;;;;;;;10.52;2.53;;;;;;;15.21;100.00;100434.25;5268893;28;20040;-70
2022/10/24 09:52:17;;;;;;;8.07;1.65;;;;;;;15.21;100.00;100443.16;5272698;28;20081;-70
2022/10/24 09:55:18;;;;;;;8.45;2.10;;;;;;;15.25;100.00;100432.94;5269986;28;20056;-70
2022/10/24 09:58:02;;;;;;;11.63;1.90;;;;;;;15.24;100.00;100428.56;5272203;28;20032;-70
2022/10/24 10:00:34;;;;;;;;;;;;;;;15.31;100.00;100442.22;5270760;28;20028;-70
2022/10/24 10:03:27;;;;;;;10.73;2.30;;;;;;;15.31;100.00;100437.69;5270761;28;20367;-70
2022/10/24 10:06:03;;;;;;;9.13;1.77;;;;;;;15.40;100.00;100449.34;5266499;28;20036;-70
2022/10/24 10:08:36;;;;;;;13.05;2.63;;;;;;;15.39;100.00;100453.03;5267491;28;20052;-70
2022/10/24 10:11:11;;;;;;;13.65;2.70;;;;;;;15.47;100.00;100455.75;5269086;28;20506;-70
2022/10/24 10:13:53;;;;;;;11.43;2.25;;;;;;;15.42;100.00;100455.41;5269061;28;20143;-70
2022/10/24 10:16:28;;;;;;;11.43;2.05;;;;;;;15.39;100.00;100469.97;5265411;28;20116;-70
2022/10/24 10:19:20;;;;;;;8.77;2.40;;;;;;;15.43;100.00;100470.50;5267122;28;20449;-69
2022/10/24 10:22:02;;;;;;;10.65;2.60;;;;;;;15.32;100.00;100468.91;5274496;28;20391;-70
2022/10/24 10:24:42;;;;;;;10.25;1.92;;;;;;;15.29;100.00;100472.78;5269098;28;20051;-70
2022/10/24 10:27:33;;;;;;;7.93;1.80;;;;;;;15.38;100.00;100472.81;5271401;28;20378;-70
2022/10/24 10:30:16;;;;;;;9.10;1.70;;;;;;;15.45;100.00;100477.41;5269773;28;20036;-70
2022/10/24 10:32:54;;;;;;;9.13;2.28;;;;;;;15.53;100.00;100478.47;5273638;28;20032;-70
2022/10/24 10:35:32;;;;;;;10.15;2.22;;;;;;;15.52;100.00;100479.50;5270968;28;20489;-70
2022/10/24 10:38:03;;;;;;;10.63;2.30;;;;;;;15.57;100.00;100482.53;5271956;28;20378;-70
2022/10/24 10:40:44;;;;;;;13.75;2.53;;;;;;;15.59;100.00;100491.28;5268552;28;20035;-69
2022/10/24 10:43:27;;;;;;;9.93;2.05;;;;;;;15.56;100.00;100495.13;5269610;28;20081;-70
2022/10/24 10:46:10;;;;;;;10.02;1.90;;;;;;;15.57;100.00;100502.22;5269315;28;20394;-70
2022/10/24 10:49:00;;;;;;;10.50;2.03;;;;;;;15.51;100.00;100502.00;5272037;28;20576;-69
2022/10/24 10:51:46;;;;;;;9.15;2.15;;;;;;;15.28;100.00;100513.25;5269138;28;20033;-69
2022/10/24 10:54:38;;;;;;;8.82;1.60;;;;;;;15.13;100.00;100514.81;5279307;28;20063;-69
2022/10/24 10:57:18;;;;;;;9.88;2.00;;;;;;;14.99;100.00;100519.72;5271570;28;20147;-69
2022/10/24 11:00:09;;;;;;;8.00;2.10;;;;;;;14.83;100.00;100514.22;5266443;28;20032;-69
2022/10/24 11:02:54;;;;;;;8.20;2.10;;;;;;;14.71;100.00;100521.66;5275452;28;20040;-69
2022/10/24 11:05:35;;;;;;;7.82;1.75;;;;;;;14.65;100.00;100524.94;5274514;28;20043;-69
2022/10/24 11:08:19;;;;;;;8.85;1.85;;;;;;;14.62;100.00;100520.72;5279843;28;20043;-70
2022/10/24 11:10:56;;;;;;;9.77;2.30;;;;;;;14.60;100.00;100522.72;5272060;28;20021;-70
2022/10/24 11:13:37;;;;;;;9.50;1.63;;;;;;;14.62;100.00;100517.19;5271911;28;20020;-69
2022/10/24 11:16:20;;;;;;;10.90;2.40;;;;;;;14.62;100.00;100525.25;5274309;28;20446;-69
2022/10/24 11:18:57;;;;;;;6.55;1.88;;;;;;;14.66;100.00;100526.63;5270625;28;20386;-69
2022/10/24 11:21:32;;;;;;;12.82;2.25;;;;;;;14.69;100.00;100523.66;5278718;28;20028;-69
2022/10/24 11:24:21;;;;;;;10.77;2.10;;;;;;;14.79;100.00;100523.59;5278777;28;20099;-69
2022/10/24 11:27:08;;;;;;;10.68;2.83;;;;;;;14.85;100.00;100515.75;5270348;28;20031;-69
2022/10/24 11:29:52;;;;;;;9.45;2.55;;;;;;;14.92;100.00;100518.69;5276093;28;20135;-69
2022/10/24 11:32:51;;;;;;;9.90;1.90;;;;;;;15.05;100.00;100521.81;5274506;28;20538;-70
2022/10/24 11:35:36;;;;;;;10.32;2.03;;;;;;;15.10;100.00;100516.81;5272099;28;20226;-69
2022/10/24 11:38:15;;;;;;;10.95;2.80;;;;;;;15.20;100.00;100526.63;5265215;28;20036;-69
2022/10/24 11:40:54;;;;;;;12.13;2.17;;;;;;;15.29;100.00;100529.22;5278610;28;20025;-69
2022/10/24 11:43:31;;;;;;;8.05;2.22;;;;;;;15.33;100.00;100531.59;5276858;28;20031;-70
2022/10/24 11:46:41;;;;;;;8.50;1.90;;;;;;;15.42;100.00;100528.81;5273022;28;20029;-70
2022/10/24 11:49:23;;;;;;;12.25;2.20;;;;;;;15.46;100.00;100527.50;5246220;28;20047;-69
2022/10/24 11:52:07;;;;;;;10.52;2.03;;;;;;;15.48;100.00;100517.44;5272749;28;20029;-69
2022/10/24 11:54:47;;;;;;;9.20;1.60;;;;;;;15.58;100.00;100529.94;5274294;28;20028;-70
2022/10/24 11:57:24;;;;;;;9.48;1.70;;;;;;;15.65;100.00;100525.63;5274971;28;20033;-70